Time;durP1;ratioP1;P1;durP2;ratioP2;P2;SDS_P1;SDS_P2;PMS_P1;PMS_P2;Temp;Humidity;BMP_temperature;BMP_pressure;BME280_temperature;BME280_humidity;BME280_pressure;Samples;Min_cycle;Max_cycle;Signal;HPM_P1;HPM_P2
2022/07/06 00:01:29;;;;;;;;;;;;;;;17.52;100.00;90963.78;5014420;28;19925;-67
2022/07/06 00:03:55;;;;;;;;;;;;;;;17.57;100.00;90960.81;5014157;28;19971;-68
2022/07/06 00:06:20;;;;;;;;;;;;;;;17.48;100.00;90954.84;5014401;28;19914;-68
2022/07/06 00:08:45;;;;;;;;;;;;;;;17.45;100.00;90938.63;5014261;28;20388;-68
2022/07/06 00:11:11;;;;;;;;;;;;;;;17.37;100.00;90921.56;5014318;28;19914;-67
2022/07/06 00:13:36;;;;;;;;;;;;;;;17.35;100.00;90907.66;5014259;28;19914;-67
2022/07/06 00:16:02;;;;;;;;;;;;;;;17.29;100.00;90906.38;5014305;28;19921;-67
2022/07/06 00:18:27;;;;;;;;;;;;;;;17.22;100.00;90901.63;5014230;28;20371;-68
2022/07/06 00:20:52;;;;;;;;;;;;;;;17.27;100.00;90895.97;5014078;28;20392;-67
2022/07/06 00:23:18;;;;;;;;;;;;;;;17.24;100.00;90887.84;5014097;28;19936;-67
2022/07/06 00:25:43;;;;;;;;;;;;;;;17.22;100.00;90892.78;5013650;28;19917;-67
2022/07/06 00:28:08;;;;;;;;;;;;;;;17.30;100.00;90897.19;5014250;28;19917;-67
2022/07/06 00:30:34;;;;;;;;;;;;;;;17.39;100.00;90900.47;5014260;28;19917;-68
2022/07/06 00:32:59;;;;;;;;;;;;;;;17.38;100.00;90906.19;5014448;28;20398;-67
2022/07/06 00:35:25;;;;;;;;;;;;;;;17.49;100.00;90909.88;5014137;28;19975;-68
2022/07/06 00:37:50;;;;;;;;;;;;;;;17.51;100.00;90916.47;5014008;28;20381;-67
2022/07/06 00:40:16;;;;;;;;;;;;;;;17.50;100.00;90908.75;5013986;28;19964;-68
2022/07/06 00:42:42;;;;;;;;;;;;;;;17.44;100.00;90913.63;5013993;28;19913;-68
2022/07/06 00:45:08;;;;;;;;;;;;;;;17.41;100.00;90905.50;5013817;28;19913;-68
2022/07/06 00:47:33;;;;;;;;;;;;;;;17.44;100.00;90908.25;5029121;28;19923;-68
2022/07/06 00:50:14;;;;;;;;;;;;;;;17.43;100.00;90906.69;5013825;28;19923;-68
2022/07/06 00:52:40;;;;;;;;;;;;;;;17.27;100.00;90914.81;4996096;28;20339;-68
2022/07/06 00:55:07;;;;;;;;;;;;;;;17.25;100.00;90909.00;5013677;28;19913;-68
2022/07/06 00:57:32;;;;;;;;;;;;;;;17.22;100.00;90923.13;5013591;28;20306;-68
2022/07/06 00:59:58;;;;;;;;;;;;;;;17.21;100.00;90921.59;5013604;28;19914;-68
2022/07/06 01:02:23;;;;;;;;;;;;;;;17.07;100.00;90923.94;5013457;28;19917;-68
2022/07/06 01:04:49;;;;;;;;;;;;;;;16.92;100.00;90928.19;5013261;28;19921;-68
2022/07/06 01:07:14;;;;;;;;;;;;;;;16.80;100.00;90920.19;5013457;28;19990;-68
2022/07/06 01:09:39;;;;;;;;;;;;;;;16.70;100.00;90910.72;5013437;28;19966;-68
2022/07/06 01:12:05;;;;;;;;;;;;;;;16.67;100.00;90914.13;5013258;28;20016;-68
2022/07/06 01:14:31;;;;;;;;;;;;;;;16.67;100.00;90914.13;5013252;28;19921;-68
2022/07/06 01:16:57;;;;;;;;;;;;;;;16.61;100.00;90920.84;5013620;28;19913;-69
2022/07/06 01:19:22;;;;;;;;;;;;;;;16.67;100.00;90918.72;5013343;28;19936;-68
2022/07/06 01:21:47;;;;;;;;;;;;;;;16.65;100.00;90918.25;5013094;28;19913;-68
2022/07/06 01:24:13;;;;;;;;;;;;;;;16.70;100.00;90920.69;5013072;28;20004;-68
2022/07/06 01:26:38;;;;;;;;;;;;;;;16.73;100.00;90931.56;5013060;28;20040;-68
2022/07/06 01:29:03;;;;;;;;;;;;;;;16.83;100.00;90935.63;5013068;28;19983;-68
2022/07/06 01:31:29;;;;;;;;;;;;;;;16.93;100.00;90935.09;5012888;28;20375;-68
2022/07/06 01:33:55;;;;;;;;;;;;;;;17.05;100.00;90951.16;5012771;28;19917;-68
2022/07/06 01:36:20;;;;;;;;;;;;;;;17.05;100.00;90942.31;5011984;28;20302;-68
2022/07/06 01:38:46;;;;;;;;;;;;;;;17.15;100.00;90946.38;5012873;28;20006;-67
2022/07/06 01:41:12;;;;;;;;;;;;;;;17.13;100.00;90948.63;5012764;28;19984;-67
2022/07/06 01:43:38;;;;;;;;;;;;;;;17.14;100.00;90958.25;5012866;28;19919;-67
2022/07/06 01:46:03;;;;;;;;;;;;;;;17.14;100.00;90960.94;5012744;28;20019;-68
2022/07/06 01:48:28;;;;;;;;;;;;;;;17.11;100.00;90962.41;5012543;28;19921;-67
2022/07/06 01:50:54;;;;;;;;;;;;;;;17.12;100.00;90968.56;5012412;28;19921;-68
2022/07/06 01:53:19;;;;;;;;;;;;;;;17.16;100.00;90958.69;5012462;28;19917;-68
2022/07/06 01:55:45;;;;;;;;;;;;;;;17.16;100.00;90969.44;5012424;28;19947;-68
2022/07/06 01:58:10;;;;;;;;;;;;;;;17.11;100.00;90964.31;5012332;28;20272;-68
2022/07/06 02:00:35;;;;;;;;;;;;;;;17.15;100.00;90967.88;5012190;28;19913;-68
2022/07/06 02:03:00;;;;;;;;;;;;;;;17.15;100.00;90968.66;5031065;28;19913;-68
2022/07/06 02:05:26;;;;;;;;;;;;;;;17.19;100.00;90969.50;5031893;28;20401;-68
2022/07/06 02:07:51;;;;;;;;;;;;;;;17.17;100.00;90973.69;5031988;28;19912;-68
2022/07/06 02:10:17;;;;;;;;;;;;;;;17.17;100.00;90977.16;5031926;28;19920;-68
2022/07/06 02:12:42;;;;;;;;;;;;;;;17.16;100.00;90974.81;5014140;28;20441;-68
2022/07/06 02:15:07;;;;;;;;;;;;;;;17.21;100.00;90974.56;5031901;28;19920;-68
2022/07/06 02:17:33;;;;;;;;;;;;;;;17.26;100.00;90969.69;5031803;28;19920;-68
2022/07/06 02:19:58;;;;;;;;;;;;;;;17.33;100.00;90975.22;5031807;28;19940;-68
2022/07/06 02:22:23;;;;;;;;;;;;;;;17.34;100.00;90978.69;5031716;28;19956;-68
2022/07/06 02:24:49;;;;;;;;;;;;;;;17.44;100.00;90983.56;5031628;28;19917;-68
2022/07/06 02:27:14;;;;;;;;;;;;;;;17.50;100.00;90987.53;5031708;28;19917;-68
2022/07/06 02:29:39;;;;;;;;;;;;;;;17.57;100.00;90990.41;5031752;28;19917;-68
2022/07/06 02:32:05;;;;;;;;;;;;;;;17.58;100.00;90975.81;5031606;28;19967;-68
2022/07/06 02:34:30;;;;;;;;;;;;;;;17.57;100.00;90968.13;5031604;28;19913;-68
2022/07/06 02:36:56;;;;;;;;;;;;;;;17.63;100.00;90967.47;5031714;28;20009;-68
2022/07/06 02:39:21;;;;;;;;;;;;;;;17.74;100.00;90972.34;5031704;28;20004;-68
2022/07/06 02:41:46;;;;;;;;;;;;;;;17.76;100.00;90976.25;5031496;28;19920;-68
2022/07/06 02:44:11;;;;;;;;;;;;;;;17.73;100.00;90965.41;5031465;28;19960;-68
2022/07/06 02:46:37;;;;;;;;;;;;;;;17.54;100.00;90961.53;5031513;28;19967;-68
2022/07/06 02:49:02;;;;;;;;;;;;;;;17.40;100.00;90966.56;5037107;28;19917;-68
2022/07/06 02:51:27;;;;;;;;;;;;;;;17.26;100.00;90968.91;5037971;28;19920;-68
2022/07/06 02:53:53;;;;;;;;;;;;;;;17.13;100.00;90976.28;5038088;28;19919;-68
2022/07/06 02:56:18;;;;;;;;;;;;;;;17.06;100.00;90970.75;5038071;28;20394;-68
2022/07/06 02:58:44;;;;;;;;;;;;;;;17.02;100.00;90969.84;5037979;28;19924;-68
2022/07/06 03:01:09;;;;;;;;;;;;;;;16.99;100.00;90967.88;5037837;28;20362;-68
2022/07/06 03:03:34;;;;;;;;;;;;;;;16.92;100.00;90965.03;5037737;28;19927;-68
2022/07/06 03:06:00;;;;;;;;;;;;;;;16.88;100.00;90972.97;5038024;28;20004;-68
2022/07/06 03:08:25;;;;;;;;;;;;;;;16.83;100.00;90970.53;5038000;28;19913;-68
2022/07/06 03:10:50;;;;;;;;;;;;;;;16.81;100.00;90966.66;5037943;28;19955;-68
2022/07/06 03:13:16;;;;;;;;;;;;;;;16.71;100.00;90965.25;5038052;28;19913;-67
2022/07/06 03:15:41;;;;;;;;;;;;;;;16.68;100.00;90972.09;5037964;28;20373;-68
2022/07/06 03:18:07;;;;;;;;;;;;;;;16.65;100.00;90971.97;5037809;28;19967;-67
2022/07/06 03:20:32;;;;;;;;;;;;;;;16.62;100.00;90961.91;5037707;28;19967;-68
2022/07/06 03:22:57;;;;;;;;;;;;;;;16.55;100.00;90967.88;5037822;28;19912;-68
2022/07/06 03:25:23;;;;;;;;;;;;;;;16.54;100.00;90968.22;5037681;28;20410;-68
2022/07/06 03:27:48;;;;;;;;;;;;;;;16.53;100.00;90961.28;5037722;28;19913;-68
2022/07/06 03:30:14;;;;;;;;;;;;;;;16.46;100.00;90964.56;5019829;28;20042;-68
2022/07/06 03:32:39;;;;;;;;;;;;;;;16.24;100.00;90965.88;5037732;28;19917;-68
2022/07/06 03:35:05;;;;;;;;;;;;;;;16.15;100.00;90974.09;5037737;28;19917;-68
2022/07/06 03:37:30;;;;;;;;;;;;;;;16.09;100.00;90980.00;5037812;28;19913;-68
2022/07/06 03:39:55;;;;;;;;;;;;;;;16.04;100.00;90974.91;5037606;28;19913;-68
2022/07/06 03:42:21;;;;;;;;;;;;;;;15.99;100.00;90981.28;5037677;28;19920;-67
2022/07/06 03:44:46;;;;;;;;;;;;;;;16.01;100.00;90978.25;5037604;28;19920;-68
2022/07/06 03:47:11;;;;;;;;;;;;;;;16.08;100.00;90981.91;5037641;28;19913;-68
2022/07/06 03:49:36;;;;;;;;;;;;;;;16.12;100.00;90988.19;5037450;28;19913;-67
2022/07/06 03:52:02;;;;;;;;;;;;;;;16.10;100.00;90995.03;5037300;28;19913;-68
2022/07/06 03:54:27;;;;;;;;;;;;;;;16.07;100.00;90995.69;5037273;28;19913;-68
2022/07/06 03:56:53;;;;;;;;;;;;;;;16.16;100.00;90993.66;5037308;28;19913;-68
2022/07/06 03:59:18;;;;;;;;;;;;;;;16.25;100.00;91012.28;5035358;28;19917;-67
2022/07/06 04:01:43;;;;;;;;;;;;;;;16.42;100.00;91009.34;5034315;28;19917;-68
2022/07/06 04:04:09;;;;;;;;;;;;;;;16.55;100.00;91005.47;5034128;28;19925;-67
2022/07/06 04:06:34;;;;;;;;;;;;;;;16.76;100.00;91010.69;5034325;28;19928;-68
2022/07/06 04:09:00;;;;;;;;;;;;;;;16.80;100.00;91011.53;5034419;28;19917;-68
2022/07/06 04:11:25;;;;;;;;;;;;;;;17.09;100.00;91012.28;5034270;28;20047;-68
2022/07/06 04:13:50;;;;;;;;;;;;;;;17.32;100.00;91005.16;5034217;28;20055;-68
2022/07/06 04:16:16;;;;;;;;;;;;;;;17.39;100.00;91016.09;5034164;28;20398;-68
2022/07/06 04:18:41;;;;;;;;;;;;;;;17.50;100.00;91011.75;5034073;28;19983;-68
2022/07/06 04:21:06;;;;;;;;;;;;;;;17.37;100.00;91015.69;5033942;28;19913;-68
2022/07/06 04:23:32;;;;;;;;;;;;;;;17.38;100.00;91011.84;5033979;28;19917;-69
2022/07/06 04:25:57;;;;;;;;;;;;;;;17.34;100.00;91002.91;5034044;28;19913;-68
2022/07/06 04:28:23;;;;;;;;;;;;;;;17.41;100.00;91008.47;5033873;28;19913;-69
2022/07/06 04:30:48;;;;;;;;;;;;;;;17.42;100.00;91010.03;5033771;28;19913;-67
2022/07/06 04:33:13;;;;;;;;;;;;;;;17.32;100.00;91010.53;5033762;28;20362;-68
2022/07/06 04:35:39;;;;;;;;;;;;;;;17.43;100.00;91008.91;5033854;28;19917;-68
2022/07/06 04:38:04;;;;;;;;;;;;;;;17.42;100.00;91011.94;5033791;28;19978;-68
2022/07/06 04:40:30;;;;;;;;;;;;;;;17.54;100.00;91019.94;5033745;28;19917;-68
2022/07/06 04:42:55;;;;;;;;;;;;;;;17.74;100.00;91016.19;5033722;28;19956;-68
2022/07/06 04:45:21;;;;;;;;;;;;;;;17.83;100.00;91010.59;5033647;28;20007;-68
2022/07/06 04:47:46;;;;;;;;;;;;;;;17.85;100.00;91013.75;5033595;28;19960;-68
2022/07/06 04:50:12;;;;;;;;;;;;;;;17.89;100.00;91015.38;5033405;28;20307;-69
2022/07/06 04:52:37;;;;;;;;;;;;;;;17.87;100.00;91014.97;5033513;28;19963;-68
2022/07/06 04:55:05;;;;;;;;;;;;;;;18.06;100.00;91006.13;5033457;28;19920;-68
2022/07/06 04:57:31;;;;;;;;;;;;;;;18.28;100.00;91015.44;5033721;28;19913;-69
2022/07/06 04:59:56;;;;;;;;;;;;;;;18.44;100.00;91010.00;5033549;28;20306;-68
2022/07/06 05:02:22;;;;;;;;;;;;;;;18.43;100.00;91013.81;5033594;28;19913;-68
2022/07/06 05:04:47;;;;;;;;;;;;;;;18.64;100.00;91008.91;5033128;28;20009;-68
2022/07/06 05:07:13;;;;;;;;;;;;;;;18.72;100.00;91015.19;5033246;28;19913;-67
2022/07/06 05:09:38;;;;;;;;;;;;;;;18.91;100.00;91012.47;5033254;28;19913;-67
2022/07/06 05:12:03;;;;;;;;;;;;;;;19.19;100.00;91022.22;5015262;28;20406;-69
2022/07/06 05:14:29;;;;;;;;;;;;;;;19.46;100.00;91026.56;5033042;28;19924;-67
2022/07/06 05:16:54;;;;;;;;;;;;;;;19.73;100.00;91028.22;5033125;28;19921;-66
2022/07/06 05:19:19;;;;;;;;;;;;;;;20.18;100.00;91033.88;5032957;28;20480;-67
2022/07/06 05:21:45;;;;;;;;;;;;;;;20.67;100.00;91028.41;5032837;28;19913;-66
2022/07/06 05:24:10;;;;;;;;;;;;;;;21.01;100.00;91040.00;5032817;28;20284;-66
2022/07/06 05:26:35;;;;;;;;;;;;;;;21.27;100.00;91028.31;5032837;28;19999;-66
2022/07/06 05:29:01;;;;;;;;;;;;;;;21.73;100.00;91033.38;5032837;28;19913;-66
2022/07/06 05:31:26;;;;;;;;;;;;;;;21.91;100.00;91042.41;5032723;28;19913;-67
2022/07/06 05:33:51;;;;;;;;;;;;;;;21.61;100.00;91037.13;5032806;28;19940;-67
2022/07/06 05:36:18;;;;;;;;;;;;;;;21.81;100.00;91030.38;5032701;28;19943;-67
2022/07/06 05:38:43;;;;;;;;;;;;;;;21.98;100.00;91028.94;5032607;28;19913;-67
2022/07/06 05:41:08;;;;;;;;;;;;;;;21.94;100.00;91033.56;5032529;28;19919;-67
2022/07/06 05:43:37;;;;;;;;;;;;;;;21.71;100.00;91038.38;5032489;28;20334;-67
2022/07/06 05:46:03;;;;;;;;;;;;;;;21.83;100.00;91036.19;5032388;28;19912;-67
2022/07/06 05:51:11;;;;;;;;;;;;;;;22.86;100.00;91038.81;5032638;28;19942;-67
2022/07/06 05:53:37;;;;;;;;;;;;;;;25.67;91.19;91038.66;5032392;28;20349;-67
2022/07/06 05:56:02;;;;;;;;;;;;;;;29.09;67.56;91045.53;5032441;28;19920;-67
2022/07/06 05:58:27;;;;;;;;;;;;;;;28.89;60.05;91034.56;5032313;28;19920;-67
2022/07/06 06:00:53;;;;;;;;;;;;;;;30.52;58.72;91037.78;5032210;28;19917;-67
2022/07/06 06:03:18;;;;;;;;;;;;;;;31.39;54.48;91043.44;5031921;28;19922;-67
2022/07/06 06:05:43;;;;;;;;;;;;;;;31.85;53.22;91036.63;5032192;28;20026;-67
2022/07/06 06:08:09;;;;;;;;;;;;;;;30.45;55.83;91046.19;5032109;28;19967;-67
2022/07/06 06:10:34;;;;;;;;;;;;;;;27.85;62.64;91042.81;5031972;28;19924;-67
2022/07/06 06:13:00;;;;;;;;;;;;;;;25.96;70.21;91031.13;5032036;28;20414;-67
2022/07/06 06:15:25;;;;;;;;;;;;;;;26.60;73.63;91031.78;5031993;28;19971;-67
2022/07/06 06:17:50;;;;;;;;;;;;;;;27.90;67.28;91030.63;5031899;28;19971;-67
2022/07/06 06:20:16;;;;;;;;;;;;;;;28.47;63.82;91027.81;5031684;28;20454;-67
2022/07/06 06:22:48;;;;;;;;;;;;;;;26.81;69.54;91026.88;5031217;28;20350;-67
2022/07/06 06:25:15;;;;;;;;;;;;;;;25.72;77.61;91023.09;5031604;28;20314;-67
2022/07/06 06:27:40;;;;;;;;;;;;;;;24.69;86.92;91016.13;5031649;28;19967;-67
2022/07/06 06:30:06;;;;;;;;;;;;;;;26.03;86.60;91015.88;5031491;28;19913;-67
2022/07/06 06:32:31;;;;;;;;;;;;;;;27.06;71.60;91007.53;5031630;28;20334;-67
2022/07/06 06:34:56;;;;;;;;;;;;;;;26.15;80.24;91009.94;5031600;28;19913;-67
2022/07/06 06:37:22;;;;;;;;;;;;;;;26.96;75.52;91004.88;5031753;28;20007;-67
2022/07/06 06:39:47;;;;;;;;;;;;;;;28.83;68.17;91011.53;5031526;28;19913;-67
2022/07/06 06:42:12;;;;;;;;;;;;;;;28.87;65.44;91011.50;5031643;28;19913;-67
2022/07/06 06:44:38;;;;;;;;;;;;;;;28.58;66.79;91008.50;5031419;28;19920;-67
2022/07/06 06:47:03;;;;;;;;;;;;;;;29.95;60.95;91022.63;5031527;28;19913;-67
2022/07/06 06:49:28;;;;;;;;;;;;;;;31.31;55.91;91008.34;5031542;28;20354;-67
2022/07/06 06:51:54;;;;;;;;;;;;;;;31.64;54.91;91017.97;5031466;28;19928;-67
2022/07/06 06:54:19;;;;;;;;;;;;;;;29.92;57.37;91011.72;5013911;28;19927;-67
2022/07/06 06:56:44;;;;;;;;;;;;;;;28.32;60.82;91005.41;5011547;28;19972;-67
2022/07/06 06:59:10;;;;;;;;;;;;;;;27.91;65.80;91008.34;5011532;28;19913;-68
2022/07/06 07:01:35;;;;;;;;;;;;;;;28.93;61.30;91007.09;5011282;28;19913;-67
2022/07/06 07:04:00;;;;;;;;;;;;;;;30.68;57.16;91006.84;5010797;28;19956;-67
2022/07/06 07:06:26;;;;;;;;;;;;;;;31.99;54.57;91009.91;5011353;28;19963;-68
2022/07/06 07:08:51;;;;;;;;;;;;;;;33.88;49.75;91018.16;5011124;28;19914;-67
2022/07/06 07:11:16;;;;;;;;;;;;;;;30.09;55.62;91016.06;5011299;28;20316;-67
2022/07/06 07:13:42;;;;;;;;;;;;;;;29.18;61.02;91009.34;5011215;28;19914;-68
2022/07/06 07:16:07;;;;;;;;;;;;;;;29.40;58.62;91013.22;5011341;28;19992;-68
2022/07/06 07:18:32;;;;;;;;;;;;;;;28.64;60.60;91010.31;5011052;28;20347;-68
2022/07/06 07:20:58;;;;;;;;;;;;;;;27.61;63.72;91006.41;5011306;28;20284;-68
2022/07/06 07:23:23;;;;;;;;;;;;;;;27.56;65.06;91009.59;5011601;28;19920;-68
2022/07/06 07:25:48;;;;;;;;;;;;;;;25.20;79.37;91001.97;5011339;28;19913;-68
2022/07/06 07:28:14;;;;;;;;;;;;;;;22.75;100.00;91005.44;5011138;28;19921;-68
2022/07/06 07:30:40;;;;;;;;;;;;;;;21.54;100.00;91010.00;5011009;28;20407;-68
2022/07/06 07:33:05;;;;;;;;;;;;;;;21.28;100.00;91007.44;5010692;28;19921;-68
2022/07/06 07:35:30;;;;;;;;;;;;;;;24.05;100.00;91003.41;5013236;28;19913;-68
2022/07/06 07:37:56;;;;;;;;;;;;;;;28.61;73.33;91007.66;5030086;28;19913;-67
2022/07/06 07:40:21;;;;;;;;;;;;;;;30.06;64.10;91016.94;5014816;28;19913;-68
2022/07/06 07:42:47;;;;;;;;;;;;;;;32.31;54.97;91012.47;5014722;28;19914;-68
2022/07/06 07:45:12;;;;;;;;;;;;;;;32.78;52.56;91011.72;5014855;28;19913;-67
2022/07/06 07:47:38;;;;;;;;;;;;;;;31.91;51.32;91011.34;5014514;28;20383;-68
2022/07/06 07:50:03;;;;;;;;;;;;;;;33.59;48.53;91029.44;5014683;28;19914;-68
2022/07/06 07:52:29;;;;;;;;;;;;;;;32.60;49.43;91015.06;5014515;28;19968;-68
2022/07/06 07:54:54;;;;;;;;;;;;;;;31.15;50.92;91020.91;5014728;28;20435;-68
2022/07/06 07:57:19;;;;;;;;;;;;;;;29.49;54.29;91020.88;5014712;28;19960;-68
2022/07/06 07:59:45;;;;;;;;;;;;;;;26.53;63.38;91027.19;5014524;28;20434;-68
2022/07/06 08:02:10;;;;;;;;;;;;;;;25.27;72.85;91031.91;5014532;28;19959;-68
2022/07/06 08:04:35;;;;;;;;;;;;;;;24.01;83.65;91027.09;5013780;28;20012;-68
2022/07/06 08:07:00;;;;;;;;;;;;;;;24.40;93.70;91018.91;5014491;28;19914;-68
2022/07/06 08:09:26;;;;;;;;;;;;;;;28.72;63.55;91016.47;5014430;28;19913;-70
2022/07/06 08:11:51;;;;;;;;;;;;;;;31.19;57.46;91023.56;5014387;28;19913;-71
2022/07/06 08:14:17;;;;;;;;;;;;;;;32.17;51.85;91023.88;5014233;28;20034;-70
2022/07/06 08:16:42;;;;;;;;;;;;;;;32.63;49.32;91016.16;5014332;28;19913;-70
2022/07/06 08:19:08;;;;;;;;;;;;;;;31.58;50.99;91022.50;5013783;28;20024;-70
2022/07/06 08:21:33;;;;;;;;;;;;;;;31.46;53.10;91025.97;5014066;28;20289;-71
2022/07/06 08:24:00;;;;;;;;;;;;;;;31.47;50.98;91027.50;5014114;28;19913;-69
2022/07/06 08:26:26;;;;;;;;;;;;;;;31.82;50.38;91025.75;5013926;28;20020;-70
2022/07/06 08:28:51;;;;;;;;;;;;;;;32.70;49.36;91022.22;5013858;28;20455;-70
2022/07/06 08:31:17;;;;;;;;;;;;;;;29.50;52.93;91022.41;5013836;28;20296;-71
2022/07/06 08:33:42;;;;;;;;;;;;;;;29.10;56.01;91024.38;5013438;28;19920;-71
2022/07/06 08:36:07;;;;;;;;;;;;;;;30.50;52.35;91022.97;5017399;28;20334;-71
2022/07/06 08:38:33;;;;;;;;;;;;;;;33.56;47.42;91028.38;5033594;28;19965;-70
2022/07/06 08:40:58;;;;;;;;;;;;;;;33.05;47.14;91025.03;5033278;28;20375;-73
2022/07/06 08:43:23;;;;;;;;;;;;;;;33.11;46.99;91023.22;5035429;28;19913;-69
2022/07/06 08:45:50;;;;;;;;;;;;;;;31.44;49.85;91015.41;5032868;28;19917;-69
2022/07/06 08:48:15;;;;;;;;;;;;;;;32.32;49.73;91015.97;5032939;28;20011;-69
2022/07/06 08:50:41;;;;;;;;;;;;;;;32.63;48.92;91018.91;5033142;28;20410;-69
2022/07/06 08:53:06;;;;;;;;;;;;;;;32.80;46.89;91017.56;5033193;28;19913;-69
2022/07/06 08:55:32;;;;;;;;;;;;;;;32.65;47.55;91019.25;5033055;28;20443;-69
2022/07/06 08:57:57;;;;;;;;;;;;;;;32.97;47.61;91010.69;5033102;28;19913;-68
2022/07/06 09:00:27;;;;;;;;;;;;;;;33.57;47.04;91023.63;5032956;28;20078;-70
2022/07/06 09:02:56;;;;;;;;;;;;;;;31.66;47.31;91023.81;5032702;28;19913;-70
2022/07/06 09:05:23;;;;;;;;;;;;;;;32.36;47.14;91013.91;5032772;28;19960;-70
2022/07/06 09:07:52;;;;;;;;;;;;;;;33.09;46.66;91019.38;5015224;28;20414;-71
2022/07/06 09:10:18;;;;;;;;;;;;;;;33.78;45.32;91020.09;5032889;28;19917;-71
2022/07/06 09:12:44;;;;;;;;;;;;;;;33.99;44.48;91024.06;5032658;28;19943;-71
2022/07/06 09:15:09;;;;;;;;;;;;;;;33.67;44.75;91027.22;5032878;28;19921;-71
2022/07/06 09:17:37;;;;;;;;;;;;;;;32.20;48.27;91016.75;5032461;28;19964;-71
2022/07/06 09:20:03;;;;;;;;;;;;;;;31.67;46.80;91019.84;5032768;28;19920;-71
2022/07/06 09:22:31;;;;;;;;;;;;;;;31.23;49.39;91036.00;5032336;28;19917;-71
2022/07/06 09:25:08;;;;;;;;;;;;;;;31.12;51.21;91021.00;5032573;28;20327;-71
2022/07/06 09:27:47;;;;;;;;;;;;;;;28.90;55.65;91029.84;5032630;28;20462;-71
2022/07/06 09:30:13;;;;;;;;;;;;;;;29.66;53.06;91021.69;5032585;28;19971;-71
2022/07/06 09:32:42;;;;;;;;;;;;;;;30.72;51.32;91012.22;5032202;28;20345;-71
2022/07/06 09:35:08;;;;;;;;;;;;;;;30.72;50.09;91007.50;5014821;28;19913;-71
2022/07/06 09:37:34;;;;;;;;;;;;;;;32.66;47.19;90998.75;5032107;28;20413;-71
2022/07/06 09:39:59;;;;;;;;;;;;;;;32.36;49.01;91011.16;5032413;28;20000;-71
2022/07/06 09:42:26;;;;;;;;;;;;;;;32.99;47.63;91011.06;5032422;28;20016;-70
2022/07/06 09:44:51;;;;;;;;;;;;;;;33.81;45.54;91007.38;5032227;28;19913;-71
2022/07/06 09:47:17;;;;;;;;;;;;;;;32.36;45.38;91005.66;5031934;28;20357;-70
2022/07/06 09:49:43;;;;;;;;;;;;;;;32.74;47.79;91000.06;5032141;28;20341;-70
2022/07/06 09:52:10;;;;;;;;;;;;;;;32.58;45.05;90997.44;5014443;28;20008;-72
2022/07/06 09:54:36;;;;;;;;;;;;;;;30.75;47.87;90995.66;5032163;28;20016;-71
2022/07/06 09:57:02;;;;;;;;;;;;;;;30.57;51.88;90989.81;5031581;28;19972;-66
2022/07/06 09:59:29;;;;;;;;;;;;;;;30.73;50.43;90987.06;5031944;28;19920;-68
2022/07/06 10:01:56;;;;;;;;;;;;;;;30.32;48.69;90980.25;5031654;28;19917;-69
2022/07/06 10:04:22;;;;;;;;;;;;;;;29.95;50.48;90992.44;5031811;28;20444;-68
2022/07/06 10:06:48;;;;;;;;;;;;;;;31.61;46.18;90979.59;5031898;28;20721;-68
2022/07/06 10:09:13;;;;;;;;;;;;;;;30.03;48.82;90988.34;5031874;28;19967;-68
2022/07/06 10:11:40;;;;;;;;;;;;;;;29.05;52.98;90984.56;5031700;28;20291;-68
2022/07/06 10:14:07;;;;;;;;;;;;;;;31.03;51.34;90980.38;5031756;28;19921;-68
2022/07/06 10:16:34;;;;;;;;;;;;;;;32.59;47.69;90986.00;5031396;28;19963;-68
2022/07/06 10:19:01;;;;;;;;;;;;;;;32.33;46.28;90990.75;5031625;28;20070;-68
2022/07/06 10:21:26;;;;;;;;;;;;;;;33.21;44.32;90988.25;5031700;28;19944;-70
2022/07/06 10:23:53;;;;;;;;;;;;;;;34.42;42.77;90992.06;5031670;28;19913;-69
2022/07/06 10:26:18;;;;;;;;;;;;;;;34.98;40.90;90985.41;5031667;28;19917;-69
2022/07/06 10:28:46;;;;;;;;;;;;;;;32.99;43.91;90977.97;5031653;28;19913;-69
2022/07/06 10:31:13;;;;;;;;;;;;;;;31.81;46.86;90975.44;5031066;28;19923;-69
2022/07/06 10:33:39;;;;;;;;;;;;;;;31.51;47.92;90979.44;5013750;28;19952;-70
2022/07/06 10:36:04;;;;;;;;;;;;;;;32.27;45.11;90977.97;5031603;28;20307;-68
2022/07/06 10:38:31;;;;;;;;;;;;;;;32.78;43.10;90981.41;5031489;28;19924;-69
2022/07/06 10:41:03;;;;;;;;;;;;;;;29.81;50.74;90984.53;5013664;28;19913;-68
2022/07/06 10:43:37;;;;;;;;;;;;;;;30.16;50.10;90976.72;5031124;28;19913;-68
2022/07/06 10:46:07;;;;;;;;;;;;;;;28.72;52.81;90983.59;5030961;28;19920;-68
2022/07/06 10:48:36;;;;;;;;;;;;;;;29.43;52.93;90982.22;5031306;28;19917;-68
2022/07/06 10:51:04;;;;;;;;;;;;;;;28.78;55.25;90981.91;5031351;28;19944;-68
2022/07/06 10:53:39;;;;;;;;;;;;;;;29.17;56.23;90975.69;5031572;28;19913;-68
2022/07/06 10:56:09;;;;;;;;;;;;;;;30.59;51.33;90979.16;5031706;28;20008;-68
2022/07/06 10:58:43;;;;;;;;;;;;;;;30.29;50.95;90967.34;5031460;28;19979;-68
2022/07/06 11:01:10;;;;;;;;;;;;;;;28.87;53.68;90970.41;5013831;28;19913;-69
2022/07/06 11:03:43;;;;;;;;;;;;;;;29.40;55.21;90974.84;5031369;28;19921;-69
2022/07/06 11:06:09;;;;;;;;;;;;;;;29.79;51.87;90975.97;5031463;28;19917;-68
2022/07/06 11:08:51;;;;;;;;;;;;;;;30.37;51.73;90971.47;5032066;28;19964;-68
2022/07/06 11:11:16;;;;;;;;;;;;;;;30.73;49.97;90964.31;5035448;28;19942;-69
2022/07/06 11:13:42;;;;;;;;;;;;;;;31.70;48.48;90971.44;5035338;28;19971;-69
2022/07/06 11:16:08;;;;;;;;;;;;;;;31.49;49.20;90965.38;5035397;28;19913;-68
2022/07/06 11:18:40;;;;;;;;;;;;;;;31.98;49.28;90967.09;5035323;28;19923;-69
2022/07/06 11:21:15;;;;;;;;;;;;;;;32.11;47.56;90967.84;5035156;28;19917;-69
2022/07/06 11:23:40;;;;;;;;;;;;;;;31.34;48.99;90972.50;5035259;28;19952;-68
2022/07/06 11:26:06;;;;;;;;;;;;;;;31.94;49.03;90969.94;5035182;28;19951;-69
2022/07/06 11:28:32;;;;;;;;;;;;;;;31.25;50.44;90969.63;5035082;28;20280;-68
2022/07/06 11:30:57;;;;;;;;;;;;;;;31.93;48.68;90962.16;5034873;28;20486;-68
2022/07/06 11:33:32;;;;;;;;;;;;;;;32.47;48.35;90957.25;5034859;28;19920;-68
2022/07/06 11:36:16;;;;;;;;;;;;;;;33.74;43.47;90960.72;5034874;28;19920;-68
2022/07/06 11:38:41;;;;;;;;;;;;;;;33.32;44.01;90963.81;5034898;28;19920;-68
2022/07/06 11:41:07;;;;;;;;;;;;;;;32.83;44.61;90952.56;5034675;28;19913;-68
2022/07/06 11:43:32;;;;;;;;;;;;;;;32.73;45.76;90949.69;5034751;28;19923;-68
2022/07/06 11:45:58;;;;;;;;;;;;;;;32.07;46.16;90945.19;5034758;28;19920;-68
2022/07/06 11:48:23;;;;;;;;;;;;;;;32.99;44.98;90942.16;5034745;28;20003;-68
2022/07/06 11:51:00;;;;;;;;;;;;;;;31.64;47.18;90940.97;5034605;28;19913;-68
2022/07/06 11:53:26;;;;;;;;;;;;;;;31.78;47.58;90937.03;5034892;28;19971;-68
2022/07/06 11:55:51;;;;;;;;;;;;;;;30.91;49.05;90937.16;5034620;28;19917;-68
2022/07/06 11:58:21;;;;;;;;;;;;;;;31.86;48.84;90939.13;5034340;28;20394;-68
2022/07/06 12:01:03;;;;;;;;;;;;;;;32.72;44.71;90925.34;5034539;28;19913;-67
2022/07/06 12:03:28;;;;;;;;;;;;;;;33.20;44.46;90932.31;5034167;28;19917;-68
2022/07/06 12:05:53;;;;;;;;;;;;;;;32.37;46.52;90917.09;5034410;28;19919;-68
2022/07/06 12:08:18;;;;;;;;;;;;;;;31.18;48.25;90915.59;5034441;28;19920;-68
2022/07/06 12:10:44;;;;;;;;;;;;;;;31.62;47.80;90918.63;5034259;28;19917;-68
2022/07/06 12:13:10;;;;;;;;;;;;;;;32.11;45.15;90921.06;5034334;28;19917;-68
2022/07/06 12:15:35;;;;;;;;;;;;;;;32.06;46.01;90916.13;5034323;28;20355;-68
2022/07/06 12:18:01;;;;;;;;;;;;;;;31.95;46.91;90926.69;5034211;28;20387;-68
2022/07/06 12:20:26;;;;;;;;;;;;;;;33.24;43.32;90923.91;5033166;28;19955;-68
2022/07/06 12:23:00;;;;;;;;;;;;;;;32.01;46.10;90922.16;5034100;28;19915;-68
2022/07/06 12:25:30;;;;;;;;;;;;;;;32.18;46.06;90932.59;5034006;28;19924;-68
2022/07/06 12:27:55;;;;;;;;;;;;;;;30.88;47.43;90921.53;5034041;28;20399;-68
2022/07/06 12:30:20;;;;;;;;;;;;;;;29.10;50.34;90923.78;5033934;28;19920;-68
2022/07/06 12:32:45;;;;;;;;;;;;;;;28.83;52.74;90926.66;5033802;28;20375;-67
2022/07/06 12:35:11;;;;;;;;;;;;;;;27.38;55.21;90927.13;5033934;28;19913;-68
2022/07/06 12:37:37;;;;;;;;;;;;;;;27.29;57.97;90915.91;5033875;28;20323;-68
2022/07/06 12:40:02;;;;;;;;;;;;;;;27.40;57.41;90916.53;5033697;28;19920;-68